sensor_id;sensor_type;location;lat;lon;timestamp;P1;durP1;ratioP1;P2;durP2;ratioP2
10303;SDS011;5197;48.152;8.590;2023-02-21T00:01:39;5.33;;;2.30;;
10303;SDS011;5197;48.152;8.590;2023-02-21T00:04:24;2.40;;;2.13;;
10303;SDS011;5197;48.152;8.590;2023-02-21T00:07:09;4.33;;;2.43;;
10303;SDS011;5197;48.152;8.590;2023-02-21T00:09:55;3.97;;;2.30;;
10303;SDS011;5197;48.152;8.590;2023-02-21T00:12:40;3.33;;;2.00;;
10303;SDS011;5197;48.152;8.590;2023-02-21T00:15:26;3.90;;;2.30;;
10303;SDS011;5197;48.152;8.590;2023-02-21T00:18:11;2.87;;;2.00;;
10303;SDS011;5197;48.152;8.590;2023-02-21T00:20:56;4.70;;;2.20;;
10303;SDS011;5197;48.152;8.590;2023-02-21T00:23:42;3.03;;;1.97;;
10303;SDS011;5197;48.152;8.590;2023-02-21T00:26:27;4.57;;;2.00;;
10303;SDS011;5197;48.152;8.590;2023-02-21T00:29:13;2.23;;;2.03;;
10303;SDS011;5197;48.152;8.590;2023-02-21T00:31:58;3.73;;;2.07;;
10303;SDS011;5197;48.152;8.590;2023-02-21T00:34:44;2.27;;;1.70;;
10303;SDS011;5197;48.152;8.590;2023-02-21T00:37:30;2.07;;;1.87;;
10303;SDS011;5197;48.152;8.590;2023-02-21T00:40:15;2.50;;;2.20;;
10303;SDS011;5197;48.152;8.590;2023-02-21T00:43:01;2.07;;;1.87;;
10303;SDS011;5197;48.152;8.590;2023-02-21T00:45:47;5.23;;;2.33;;
10303;SDS011;5197;48.152;8.590;2023-02-21T00:48:32;3.33;;;2.10;;
10303;SDS011;5197;48.152;8.590;2023-02-21T00:51:17;2.77;;;2.03;;
10303;SDS011;5197;48.152;8.590;2023-02-21T00:54:03;2.23;;;2.00;;
10303;SDS011;5197;48.152;8.590;2023-02-21T00:56:48;5.23;;;2.20;;
10303;SDS011;5197;48.152;8.590;2023-02-21T00:59:34;4.13;;;2.17;;
10303;SDS011;5197;48.152;8.590;2023-02-21T01:02:19;2.43;;;2.23;;
10303;SDS011;5197;48.152;8.590;2023-02-21T01:05:04;2.80;;;2.20;;
10303;SDS011;5197;48.152;8.590;2023-02-21T01:07:50;3.67;;;2.33;;
10303;SDS011;5197;48.152;8.590;2023-02-21T01:10:36;4.30;;;1.93;;
10303;SDS011;5197;48.152;8.590;2023-02-21T01:13:21;2.57;;;2.20;;
10303;SDS011;5197;48.152;8.590;2023-02-21T01:16:06;3.40;;;2.30;;
10303;SDS011;5197;48.152;8.590;2023-02-21T01:18:52;2.90;;;1.90;;
10303;SDS011;5197;48.152;8.590;2023-02-21T01:21:37;3.77;;;2.27;;
10303;SDS011;5197;48.152;8.590;2023-02-21T01:24:22;3.47;;;1.87;;
10303;SDS011;5197;48.152;8.590;2023-02-21T01:27:08;3.20;;;2.40;;
10303;SDS011;5197;48.152;8.590;2023-02-21T01:29:53;3.67;;;2.93;;
10303;SDS011;5197;48.152;8.590;2023-02-21T01:32:38;4.77;;;2.07;;
10303;SDS011;5197;48.152;8.590;2023-02-21T01:35:24;4.00;;;2.20;;
10303;SDS011;5197;48.152;8.590;2023-02-21T01:38:09;4.00;;;2.00;;
10303;SDS011;5197;48.152;8.590;2023-02-21T01:40:55;5.43;;;2.30;;
10303;SDS011;5197;48.152;8.590;2023-02-21T01:43:55;3.90;;;2.40;;
10303;SDS011;5197;48.152;8.590;2023-02-21T01:46:46;3.87;;;2.30;;
10303;SDS011;5197;48.152;8.590;2023-02-21T01:49:32;6.87;;;2.83;;
10303;SDS011;5197;48.152;8.590;2023-02-21T01:52:20;3.07;;;2.17;;
10303;SDS011;5197;48.152;8.590;2023-02-21T01:55:06;5.73;;;2.17;;
10303;SDS011;5197;48.152;8.590;2023-02-21T01:57:52;3.90;;;2.13;;
10303;SDS011;5197;48.152;8.590;2023-02-21T02:00:39;2.77;;;2.30;;
10303;SDS011;5197;48.152;8.590;2023-02-21T02:03:25;4.33;;;2.10;;
10303;SDS011;5197;48.152;8.590;2023-02-21T02:06:11;2.60;;;2.13;;
10303;SDS011;5197;48.152;8.590;2023-02-21T02:09:05;2.40;;;2.10;;
10303;SDS011;5197;48.152;8.590;2023-02-21T02:17:36;3.53;;;2.07;;
10303;SDS011;5197;48.152;8.590;2023-02-21T02:26:23;2.73;;;2.00;;
10303;SDS011;5197;48.152;8.590;2023-02-21T02:32:36;2.77;;;2.30;;
10303;SDS011;5197;48.152;8.590;2023-02-21T02:35:31;3.40;;;2.10;;
10303;SDS011;5197;48.152;8.590;2023-02-21T02:41:12;4.57;;;2.20;;
10303;SDS011;5197;48.152;8.590;2023-02-21T02:43:54;2.63;;;2.37;;
10303;SDS011;5197;48.152;8.590;2023-02-21T02:46:29;3.87;;;1.87;;
10303;SDS011;5197;48.152;8.590;2023-02-21T02:48:59;6.33;;;2.07;;
10303;SDS011;5197;48.152;8.590;2023-02-21T02:51:31;3.43;;;2.40;;
10303;SDS011;5197;48.152;8.590;2023-02-21T02:53:59;4.03;;;2.17;;
10303;SDS011;5197;48.152;8.590;2023-02-21T02:56:26;2.90;;;2.57;;
10303;SDS011;5197;48.152;8.590;2023-02-21T02:58:55;5.60;;;2.50;;
10303;SDS011;5197;48.152;8.590;2023-02-21T03:07:20;4.23;;;1.93;;
10303;SDS011;5197;48.152;8.590;2023-02-21T03:10:22;9.80;;;2.50;;
10303;SDS011;5197;48.152;8.590;2023-02-21T03:13:12;6.23;;;2.10;;
10303;SDS011;5197;48.152;8.590;2023-02-21T03:15:51;3.50;;;2.13;;
10303;SDS011;5197;48.152;8.590;2023-02-21T03:18:36;2.00;;;1.80;;
10303;SDS011;5197;48.152;8.590;2023-02-21T03:21:11;2.37;;;2.17;;
10303;SDS011;5197;48.152;8.590;2023-02-21T03:24:05;3.23;;;2.10;;
10303;SDS011;5197;48.152;8.590;2023-02-21T03:26:36;1.90;;;1.53;;
10303;SDS011;5197;48.152;8.590;2023-02-21T03:29:05;1.83;;;1.37;;
10303;SDS011;5197;48.152;8.590;2023-02-21T03:31:40;2.27;;;1.87;;
10303;SDS011;5197;48.152;8.590;2023-02-21T03:34:11;2.37;;;1.60;;
10303;SDS011;5197;48.152;8.590;2023-02-21T03:36:38;2.90;;;1.90;;
10303;SDS011;5197;48.152;8.590;2023-02-21T03:39:05;2.23;;;1.70;;
10303;SDS011;5197;48.152;8.590;2023-02-21T03:41:32;2.10;;;1.90;;
10303;SDS011;5197;48.152;8.590;2023-02-21T03:43:59;1.70;;;1.60;;
10303;SDS011;5197;48.152;8.590;2023-02-21T03:46:26;2.23;;;1.90;;
10303;SDS011;5197;48.152;8.590;2023-02-21T03:48:53;2.40;;;1.60;;
10303;SDS011;5197;48.152;8.590;2023-02-21T03:51:20;2.13;;;1.70;;
10303;SDS011;5197;48.152;8.590;2023-02-21T03:53:46;4.67;;;2.10;;
10303;SDS011;5197;48.152;8.590;2023-02-21T03:56:13;2.23;;;1.50;;
10303;SDS011;5197;48.152;8.590;2023-02-21T03:58:40;4.00;;;1.90;;
10303;SDS011;5197;48.152;8.590;2023-02-21T04:01:07;2.77;;;1.73;;
10303;SDS011;5197;48.152;8.590;2023-02-21T04:03:34;2.20;;;2.00;;
10303;SDS011;5197;48.152;8.590;2023-02-21T04:06:01;2.97;;;2.03;;
10303;SDS011;5197;48.152;8.590;2023-02-21T04:08:29;3.57;;;1.90;;
10303;SDS011;5197;48.152;8.590;2023-02-21T04:10:56;3.47;;;2.07;;
10303;SDS011;5197;48.152;8.590;2023-02-21T04:13:22;2.10;;;1.90;;
10303;SDS011;5197;48.152;8.590;2023-02-21T04:15:50;4.13;;;1.90;;
10303;SDS011;5197;48.152;8.590;2023-02-21T04:18:17;5.13;;;1.80;;
10303;SDS011;5197;48.152;8.590;2023-02-21T04:20:43;4.00;;;2.13;;
10303;SDS011;5197;48.152;8.590;2023-02-21T04:23:15;4.13;;;1.93;;
10303;SDS011;5197;48.152;8.590;2023-02-21T04:25:44;4.33;;;1.83;;
10303;SDS011;5197;48.152;8.590;2023-02-21T04:28:11;2.70;;;2.00;;
10303;SDS011;5197;48.152;8.590;2023-02-21T04:30:37;2.43;;;1.90;;
10303;SDS011;5197;48.152;8.590;2023-02-21T04:33:04;3.30;;;2.13;;
10303;SDS011;5197;48.152;8.590;2023-02-21T04:35:31;1.83;;;1.73;;
10303;SDS011;5197;48.152;8.590;2023-02-21T04:37:58;3.27;;;1.80;;
10303;SDS011;5197;48.152;8.590;2023-02-21T04:40:25;1.87;;;1.77;;
10303;SDS011;5197;48.152;8.590;2023-02-21T04:42:52;1.97;;;1.60;;
10303;SDS011;5197;48.152;8.590;2023-02-21T04:45:19;2.20;;;1.90;;
10303;SDS011;5197;48.152;8.590;2023-02-21T04:47:45;3.20;;;1.90;;
10303;SDS011;5197;48.152;8.590;2023-02-21T04:50:12;5.27;;;1.77;;
10303;SDS011;5197;48.152;8.590;2023-02-21T04:52:39;3.17;;;1.77;;
10303;SDS011;5197;48.152;8.590;2023-02-21T04:55:07;2.13;;;1.93;;
10303;SDS011;5197;48.152;8.590;2023-02-21T04:57:34;2.20;;;1.50;;
10303;SDS011;5197;48.152;8.590;2023-02-21T05:00:01;4.50;;;2.13;;
10303;SDS011;5197;48.152;8.590;2023-02-21T05:02:32;3.97;;;1.80;;
10303;SDS011;5197;48.152;8.590;2023-02-21T05:04:59;4.93;;;1.90;;
10303;SDS011;5197;48.152;8.590;2023-02-21T05:07:26;2.77;;;1.90;;
10303;SDS011;5197;48.152;8.590;2023-02-21T05:09:53;2.30;;;2.10;;
10303;SDS011;5197;48.152;8.590;2023-02-21T05:12:20;2.70;;;2.07;;
10303;SDS011;5197;48.152;8.590;2023-02-21T05:14:47;3.53;;;1.80;;
10303;SDS011;5197;48.152;8.590;2023-02-21T05:17:13;6.23;;;2.30;;
10303;SDS011;5197;48.152;8.590;2023-02-21T05:19:40;2.00;;;1.80;;
10303;SDS011;5197;48.152;8.590;2023-02-21T05:22:07;4.13;;;2.20;;
10303;SDS011;5197;48.152;8.590;2023-02-21T05:24:34;2.37;;;2.17;;
10303;SDS011;5197;48.152;8.590;2023-02-21T05:27:08;3.70;;;1.97;;
10303;SDS011;5197;48.152;8.590;2023-02-21T05:29:41;3.00;;;2.27;;
10303;SDS011;5197;48.152;8.590;2023-02-21T05:32:11;2.70;;;2.20;;
10303;SDS011;5197;48.152;8.590;2023-02-21T05:34:38;3.67;;;2.30;;
10303;SDS011;5197;48.152;8.590;2023-02-21T05:37:09;6.57;;;2.30;;
10303;SDS011;5197;48.152;8.590;2023-02-21T05:39:37;2.70;;;2.07;;
10303;SDS011;5197;48.152;8.590;2023-02-21T05:42:04;5.33;;;2.40;;
10303;SDS011;5197;48.152;8.590;2023-02-21T05:44:31;4.10;;;2.10;;
10303;SDS011;5197;48.152;8.590;2023-02-21T05:46:58;2.47;;;2.27;;
10303;SDS011;5197;48.152;8.590;2023-02-21T05:49:25;5.47;;;2.33;;
10303;SDS011;5197;48.152;8.590;2023-02-21T05:51:53;4.87;;;2.53;;
10303;SDS011;5197;48.152;8.590;2023-02-21T05:54:20;7.97;;;2.60;;
10303;SDS011;5197;48.152;8.590;2023-02-21T05:56:48;2.57;;;2.30;;
10303;SDS011;5197;48.152;8.590;2023-02-21T05:59:16;9.17;;;2.90;;
10303;SDS011;5197;48.152;8.590;2023-02-21T06:01:45;5.50;;;3.90;;
10303;SDS011;5197;48.152;8.590;2023-02-21T06:04:13;8.83;;;4.03;;
10303;SDS011;5197;48.152;8.590;2023-02-21T06:06:41;8.33;;;2.33;;
10303;SDS011;5197;48.152;8.590;2023-02-21T06:09:09;5.73;;;2.53;;
10303;SDS011;5197;48.152;8.590;2023-02-21T06:11:36;7.73;;;2.83;;
10303;SDS011;5197;48.152;8.590;2023-02-21T06:14:12;2.93;;;2.60;;
10303;SDS011;5197;48.152;8.590;2023-02-21T06:16:44;66.37;;;28.13;;
10303;SDS011;5197;48.152;8.590;2023-02-21T06:19:12;139.47;;;53.43;;
10303;SDS011;5197;48.152;8.590;2023-02-21T06:21:41;5.10;;;2.63;;
10303;SDS011;5197;48.152;8.590;2023-02-21T06:24:09;21.47;;;10.60;;
10303;SDS011;5197;48.152;8.590;2023-02-21T06:26:36;11.83;;;7.00;;
10303;SDS011;5197;48.152;8.590;2023-02-21T06:29:04;3.80;;;3.10;;
10303;SDS011;5197;48.152;8.590;2023-02-21T06:31:31;8.20;;;4.97;;
10303;SDS011;5197;48.152;8.590;2023-02-21T06:33:58;6.10;;;4.63;;
10303;SDS011;5197;48.152;8.590;2023-02-21T06:36:26;4.97;;;3.20;;
10303;SDS011;5197;48.152;8.590;2023-02-21T06:38:54;5.57;;;3.13;;
10303;SDS011;5197;48.152;8.590;2023-02-21T06:41:23;3.80;;;3.40;;
10303;SDS011;5197;48.152;8.590;2023-02-21T06:43:52;6.13;;;3.77;;
10303;SDS011;5197;48.152;8.590;2023-02-21T06:46:23;2.57;;;2.27;;
10303;SDS011;5197;48.152;8.590;2023-02-21T06:48:52;4.83;;;2.20;;
10303;SDS011;5197;48.152;8.590;2023-02-21T06:51:19;4.40;;;2.30;;
10303;SDS011;5197;48.152;8.590;2023-02-21T06:53:48;2.00;;;1.90;;
10303;SDS011;5197;48.152;8.590;2023-02-21T06:56:15;7.20;;;2.57;;
10303;SDS011;5197;48.152;8.590;2023-02-21T06:58:42;5.37;;;2.17;;
10303;SDS011;5197;48.152;8.590;2023-02-21T07:01:09;3.17;;;2.00;;
10303;SDS011;5197;48.152;8.590;2023-02-21T07:03:40;12.93;;;2.13;;
10303;SDS011;5197;48.152;8.590;2023-02-21T07:06:09;4.43;;;2.03;;
10303;SDS011;5197;48.152;8.590;2023-02-21T07:08:36;5.50;;;3.60;;
10303;SDS011;5197;48.152;8.590;2023-02-21T07:11:03;7.97;;;4.13;;
10303;SDS011;5197;48.152;8.590;2023-02-21T07:13:31;6.63;;;3.90;;
10303;SDS011;5197;48.152;8.590;2023-02-21T07:15:59;5.90;;;3.50;;
10303;SDS011;5197;48.152;8.590;2023-02-21T07:18:30;7.43;;;3.13;;
10303;SDS011;5197;48.152;8.590;2023-02-21T07:20:57;4.37;;;2.50;;
10303;SDS011;5197;48.152;8.590;2023-02-21T07:23:24;9.17;;;2.77;;
10303;SDS011;5197;48.152;8.590;2023-02-21T07:25:51;4.63;;;2.80;;
10303;SDS011;5197;48.152;8.590;2023-02-21T07:28:18;4.23;;;2.77;;
10303;SDS011;5197;48.152;8.590;2023-02-21T07:30:45;3.57;;;3.10;;
10303;SDS011;5197;48.152;8.590;2023-02-21T07:33:12;6.10;;;3.67;;
10303;SDS011;5197;48.152;8.590;2023-02-21T07:35:39;6.73;;;3.23;;
10303;SDS011;5197;48.152;8.590;2023-02-21T07:38:06;4.27;;;2.67;;
10303;SDS011;5197;48.152;8.590;2023-02-21T07:40:33;5.43;;;3.10;;
10303;SDS011;5197;48.152;8.590;2023-02-21T07:43:00;5.33;;;2.80;;
10303;SDS011;5197;48.152;8.590;2023-02-21T07:45:27;3.80;;;2.60;;
10303;SDS011;5197;48.152;8.590;2023-02-21T07:47:54;7.30;;;4.63;;
10303;SDS011;5197;48.152;8.590;2023-02-21T07:50:21;3.73;;;3.17;;
10303;SDS011;5197;48.152;8.590;2023-02-21T07:52:48;10.60;;;3.53;;
10303;SDS011;5197;48.152;8.590;2023-02-21T07:55:17;3.67;;;3.30;;
10303;SDS011;5197;48.152;8.590;2023-02-21T07:57:44;8.13;;;5.10;;
10303;SDS011;5197;48.152;8.590;2023-02-21T08:00:11;6.83;;;2.80;;
10303;SDS011;5197;48.152;8.590;2023-02-21T08:02:39;5.20;;;2.20;;
10303;SDS011;5197;48.152;8.590;2023-02-21T08:05:07;3.53;;;2.03;;
10303;SDS011;5197;48.152;8.590;2023-02-21T08:07:34;2.40;;;2.20;;
10303;SDS011;5197;48.152;8.590;2023-02-21T08:10:02;10.07;;;3.20;;
10303;SDS011;5197;48.152;8.590;2023-02-21T08:12:29;17.60;;;3.70;;
10303;SDS011;5197;48.152;8.590;2023-02-21T08:14:56;4.20;;;2.50;;
10303;SDS011;5197;48.152;8.590;2023-02-21T08:17:23;4.80;;;2.70;;
10303;SDS011;5197;48.152;8.590;2023-02-21T08:19:50;5.60;;;2.67;;
10303;SDS011;5197;48.152;8.590;2023-02-21T08:22:17;6.32;;;2.65;;
10303;SDS011;5197;48.152;8.590;2023-02-21T08:24:44;7.67;;;2.30;;
10303;SDS011;5197;48.152;8.590;2023-02-21T08:27:11;2.75;;;1.90;;
10303;SDS011;5197;48.152;8.590;2023-02-21T08:29:38;2.75;;;2.13;;
10303;SDS011;5197;48.152;8.590;2023-02-21T08:32:05;5.97;;;2.33;;
10303;SDS011;5197;48.152;8.590;2023-02-21T08:34:33;2.42;;;1.90;;
10303;SDS011;5197;48.152;8.590;2023-02-21T08:37:00;3.67;;;2.25;;
10303;SDS011;5197;48.152;8.590;2023-02-21T08:39:27;1.90;;;1.80;;
10303;SDS011;5197;48.152;8.590;2023-02-21T08:41:57;4.03;;;1.70;;
10303;SDS011;5197;48.152;8.590;2023-02-21T08:44:23;1.80;;;1.70;;
10303;SDS011;5197;48.152;8.590;2023-02-21T08:46:50;3.83;;;2.00;;
10303;SDS011;5197;48.152;8.590;2023-02-21T08:49:17;5.53;;;2.00;;
10303;SDS011;5197;48.152;8.590;2023-02-21T08:51:44;2.47;;;1.98;;
10303;SDS011;5197;48.152;8.590;2023-02-21T08:54:11;2.28;;;2.08;;
10303;SDS011;5197;48.152;8.590;2023-02-21T08:56:38;4.63;;;2.25;;
10303;SDS011;5197;48.152;8.590;2023-02-21T08:59:05;2.22;;;1.98;;
10303;SDS011;5197;48.152;8.590;2023-02-21T09:01:34;2.45;;;1.98;;
10303;SDS011;5197;48.152;8.590;2023-02-21T09:04:02;2.50;;;2.30;;
10303;SDS011;5197;48.152;8.590;2023-02-21T09:06:29;2.23;;;1.93;;
10303;SDS011;5197;48.152;8.590;2023-02-21T09:08:57;4.30;;;2.13;;
10303;SDS011;5197;48.152;8.590;2023-02-21T09:11:24;2.63;;;2.00;;
10303;SDS011;5197;48.152;8.590;2023-02-21T09:13:51;2.63;;;1.90;;
10303;SDS011;5197;48.152;8.590;2023-02-21T09:16:20;5.60;;;1.93;;
10303;SDS011;5197;48.152;8.590;2023-02-21T09:18:55;4.47;;;2.07;;
10303;SDS011;5197;48.152;8.590;2023-02-21T09:21:24;1.90;;;1.70;;
10303;SDS011;5197;48.152;8.590;2023-02-21T09:23:52;3.57;;;1.90;;
10303;SDS011;5197;48.152;8.590;2023-02-21T09:26:20;7.63;;;2.30;;
10303;SDS011;5197;48.152;8.590;2023-02-21T09:28:51;4.50;;;1.57;;
10303;SDS011;5197;48.152;8.590;2023-02-21T09:31:19;1.70;;;1.60;;
10303;SDS011;5197;48.152;8.590;2023-02-21T09:33:46;4.00;;;1.70;;
10303;SDS011;5197;48.152;8.590;2023-02-21T09:36:14;2.07;;;1.43;;
10303;SDS011;5197;48.152;8.590;2023-02-21T09:38:41;3.03;;;1.40;;
10303;SDS011;5197;48.152;8.590;2023-02-21T09:41:09;6.33;;;1.90;;
10303;SDS011;5197;48.152;8.590;2023-02-21T09:43:40;2.53;;;1.10;;
10303;SDS011;5197;48.152;8.590;2023-02-21T09:46:19;7.67;;;1.60;;
10303;SDS011;5197;48.152;8.590;2023-02-21T09:49:12;2.83;;;1.70;;
10303;SDS011;5197;48.152;8.590;2023-02-21T09:51:54;4.50;;;1.60;;
10303;SDS011;5197;48.152;8.590;2023-02-21T09:54:23;1.73;;;1.13;;
10303;SDS011;5197;48.152;8.590;2023-02-21T09:56:53;1.20;;;1.10;;
10303;SDS011;5197;48.152;8.590;2023-02-21T09:59:23;1.50;;;1.40;;
10303;SDS011;5197;48.152;8.590;2023-02-21T10:10:47;2.90;;;1.20;;
10303;SDS011;5197;48.152;8.590;2023-02-21T10:13:37;3.70;;;1.17;;
10303;SDS011;5197;48.152;8.590;2023-02-21T10:16:12;2.33;;;1.33;;
10303;SDS011;5197;48.152;8.590;2023-02-21T10:21:33;2.57;;;1.10;;
10303;SDS011;5197;48.152;8.590;2023-02-21T10:24:09;2.43;;;1.23;;
10303;SDS011;5197;48.152;8.590;2023-02-21T10:26:39;7.67;;;1.20;;
10303;SDS011;5197;48.152;8.590;2023-02-21T10:29:19;2.83;;;0.97;;
10303;SDS011;5197;48.152;8.590;2023-02-21T10:31:50;0.90;;;0.73;;
10303;SDS011;5197;48.152;8.590;2023-02-21T10:34:24;2.33;;;1.03;;
10303;SDS011;5197;48.152;8.590;2023-02-21T10:36:56;1.73;;;0.80;;
10303;SDS011;5197;48.152;8.590;2023-02-21T10:39:33;2.03;;;0.70;;
10303;SDS011;5197;48.152;8.590;2023-02-21T10:42:23;3.57;;;0.90;;
10303;SDS011;5197;48.152;8.590;2023-02-21T10:44:57;2.30;;;0.80;;
10303;SDS011;5197;48.152;8.590;2023-02-21T10:47:25;1.47;;;0.63;;
10303;SDS011;5197;48.152;8.590;2023-02-21T10:50:06;0.70;;;0.70;;
10303;SDS011;5197;48.152;8.590;2023-02-21T10:52:47;2.03;;;0.50;;
10303;SDS011;5197;48.152;8.590;2023-02-21T10:55:18;0.50;;;0.50;;
10303;SDS011;5197;48.152;8.590;2023-02-21T10:57:58;3.00;;;0.70;;
10303;SDS011;5197;48.152;8.590;2023-02-21T11:03:03;2.03;;;0.70;;
10303;SDS011;5197;48.152;8.590;2023-02-21T11:05:54;2.17;;;0.73;;
10303;SDS011;5197;48.152;8.590;2023-02-21T11:08:37;1.80;;;0.73;;
10303;SDS011;5197;48.152;8.590;2023-02-21T11:11:05;1.43;;;0.50;;
10303;SDS011;5197;48.152;8.590;2023-02-21T11:13:33;0.77;;;0.50;;
10303;SDS011;5197;48.152;8.590;2023-02-21T11:16:06;2.43;;;0.80;;
10303;SDS011;5197;48.152;8.590;2023-02-21T11:18:35;6.87;;;0.90;;
10303;SDS011;5197;48.152;8.590;2023-02-21T11:21:12;2.63;;;0.50;;
10303;SDS011;5197;48.152;8.590;2023-02-21T11:23:54;0.57;;;0.57;;
10303;SDS011;5197;48.152;8.590;2023-02-21T11:26:24;0.70;;;0.50;;
10303;SDS011;5197;48.152;8.590;2023-02-21T11:28:53;1.03;;;0.60;;
10303;SDS011;5197;48.152;8.590;2023-02-21T11:31:28;0.63;;;0.50;;
10303;SDS011;5197;48.152;8.590;2023-02-21T11:33:58;0.80;;;0.80;;
10303;SDS011;5197;48.152;8.590;2023-02-21T11:36:31;1.53;;;0.50;;
10303;SDS011;5197;48.152;8.590;2023-02-21T11:41:43;2.40;;;0.50;;
10303;SDS011;5197;48.152;8.590;2023-02-21T11:47:06;0.53;;;0.53;;
10303;SDS011;5197;48.152;8.590;2023-02-21T11:52:55;0.97;;;0.50;;
10303;SDS011;5197;48.152;8.590;2023-02-21T11:55:31;1.17;;;0.60;;
10303;SDS011;5197;48.152;8.590;2023-02-21T11:58:24;0.50;;;0.50;;
10303;SDS011;5197;48.152;8.590;2023-02-21T12:01:31;0.87;;;0.50;;
10303;SDS011;5197;48.152;8.590;2023-02-21T12:10:21;1.33;;;0.50;;
10303;SDS011;5197;48.152;8.590;2023-02-21T12:13:06;1.60;;;0.60;;
10303;SDS011;5197;48.152;8.590;2023-02-21T12:26:16;0.73;;;0.60;;
10303;SDS011;5197;48.152;8.590;2023-02-21T12:39:20;0.33;;;0.33;;
10303;SDS011;5197;48.152;8.590;2023-02-21T12:47:11;0.87;;;0.53;;
10303;SDS011;5197;48.152;8.590;2023-02-21T12:52:54;5.03;;;0.80;;
10303;SDS011;5197;48.152;8.590;2023-02-21T12:55:30;0.57;;;0.50;;
10303;SDS011;5197;48.152;8.590;2023-02-21T12:58:12;0.40;;;0.40;;
10303;SDS011;5197;48.152;8.590;2023-02-21T13:00:48;0.70;;;0.53;;
10303;SDS011;5197;48.152;8.590;2023-02-21T13:06:09;0.70;;;0.50;;
10303;SDS011;5197;48.152;8.590;2023-02-21T13:08:52;2.33;;;0.83;;
10303;SDS011;5197;48.152;8.590;2023-02-21T13:11:32;0.80;;;0.80;;
10303;SDS011;5197;48.152;8.590;2023-02-21T13:14:10;0.87;;;0.60;;
10303;SDS011;5197;48.152;8.590;2023-02-21T13:16:45;1.90;;;0.77;;
10303;SDS011;5197;48.152;8.590;2023-02-21T13:19:13;1.70;;;0.50;;
10303;SDS011;5197;48.152;8.590;2023-02-21T13:24:47;0.40;;;0.40;;
10303;SDS011;5197;48.152;8.590;2023-02-21T13:27:41;1.47;;;0.47;;
10303;SDS011;5197;48.152;8.590;2023-02-21T13:30:27;0.60;;;0.60;;
10303;SDS011;5197;48.152;8.590;2023-02-21T13:33:19;0.50;;;0.50;;
10303;SDS011;5197;48.152;8.590;2023-02-21T13:35:55;0.97;;;0.60;;
10303;SDS011;5197;48.152;8.590;2023-02-21T13:38:25;1.07;;;0.80;;
10303;SDS011;5197;48.152;8.590;2023-02-21T13:41:04;0.60;;;0.50;;
10303;SDS011;5197;48.152;8.590;2023-02-21T13:43:35;3.03;;;0.80;;
10303;SDS011;5197;48.152;8.590;2023-02-21T14:08:26;0.63;;;0.63;;
10303;SDS011;5197;48.152;8.590;2023-02-21T14:10:56;0.70;;;0.53;;
10303;SDS011;5197;48.152;8.590;2023-02-21T14:16:07;3.30;;;0.90;;
10303;SDS011;5197;48.152;8.590;2023-02-21T14:21:05;1.10;;;0.87;;
10303;SDS011;5197;48.152;8.590;2023-02-21T14:26:48;1.17;;;1.00;;
10303;SDS011;5197;48.152;8.590;2023-02-21T14:29:37;1.67;;;0.80;;
10303;SDS011;5197;48.152;8.590;2023-02-21T14:34:36;1.90;;;1.80;;
10303;SDS011;5197;48.152;8.590;2023-02-21T14:37:34;1.83;;;1.67;;
10303;SDS011;5197;48.152;8.590;2023-02-21T14:43:10;1.23;;;1.00;;
10303;SDS011;5197;48.152;8.590;2023-02-21T14:48:35;1.13;;;1.03;;
10303;SDS011;5197;48.152;8.590;2023-02-21T14:51:52;1.10;;;0.90;;
10303;SDS011;5197;48.152;8.590;2023-02-21T15:02:28;1.33;;;1.30;;
10303;SDS011;5197;48.152;8.590;2023-02-21T15:05:19;1.93;;;1.70;;
10303;SDS011;5197;48.152;8.590;2023-02-21T15:12:51;1.40;;;1.30;;
10303;SDS011;5197;48.152;8.590;2023-02-21T15:17:55;4.90;;;2.50;;
10303;SDS011;5197;48.152;8.590;2023-02-21T15:20:24;2.33;;;2.10;;
10303;SDS011;5197;48.152;8.590;2023-02-21T15:22:54;5.10;;;2.67;;
10303;SDS011;5197;48.152;8.590;2023-02-21T15:25:42;2.00;;;1.90;;
10303;SDS011;5197;48.152;8.590;2023-02-21T15:28:26;4.03;;;1.80;;
10303;SDS011;5197;48.152;8.590;2023-02-21T15:33:32;1.30;;;1.30;;
10303;SDS011;5197;48.152;8.590;2023-02-21T15:36:14;1.40;;;1.30;;
10303;SDS011;5197;48.152;8.590;2023-02-21T15:44:27;3.30;;;1.03;;
10303;SDS011;5197;48.152;8.590;2023-02-21T15:46:58;2.87;;;1.10;;
10303;SDS011;5197;48.152;8.590;2023-02-21T15:49:32;6.03;;;1.33;;
10303;SDS011;5197;48.152;8.590;2023-02-21T15:52:02;3.27;;;1.23;;
10303;SDS011;5197;48.152;8.590;2023-02-21T15:54:31;0.90;;;0.90;;
10303;SDS011;5197;48.152;8.590;2023-02-21T15:57:04;0.90;;;0.90;;
10303;SDS011;5197;48.152;8.590;2023-02-21T15:59:35;1.50;;;0.80;;
10303;SDS011;5197;48.152;8.590;2023-02-21T16:02:11;0.77;;;0.77;;
10303;SDS011;5197;48.152;8.590;2023-02-21T16:04:48;1.07;;;0.80;;
10303;SDS011;5197;48.152;8.590;2023-02-21T16:07:38;0.60;;;0.60;;
10303;SDS011;5197;48.152;8.590;2023-02-21T16:10:08;2.47;;;0.70;;
10303;SDS011;5197;48.152;8.590;2023-02-21T16:12:38;2.70;;;0.97;;
10303;SDS011;5197;48.152;8.590;2023-02-21T16:17:52;3.27;;;1.23;;
10303;SDS011;5197;48.152;8.590;2023-02-21T16:20:34;4.20;;;0.77;;
10303;SDS011;5197;48.152;8.590;2023-02-21T16:28:38;0.80;;;0.80;;
10303;SDS011;5197;48.152;8.590;2023-02-21T16:31:06;2.07;;;0.93;;
10303;SDS011;5197;48.152;8.590;2023-02-21T16:33:37;5.13;;;0.83;;
10303;SDS011;5197;48.152;8.590;2023-02-21T16:36:08;1.00;;;0.90;;
10303;SDS011;5197;48.152;8.590;2023-02-21T16:38:43;2.00;;;0.80;;
10303;SDS011;5197;48.152;8.590;2023-02-21T16:41:13;0.93;;;0.90;;
10303;SDS011;5197;48.152;8.590;2023-02-21T16:43:41;1.47;;;0.97;;
10303;SDS011;5197;48.152;8.590;2023-02-21T16:46:08;1.30;;;0.63;;
10303;SDS011;5197;48.152;8.590;2023-02-21T16:48:35;0.60;;;0.60;;
10303;SDS011;5197;48.152;8.590;2023-02-21T16:51:04;0.67;;;0.67;;
10303;SDS011;5197;48.152;8.590;2023-02-21T16:53:35;2.23;;;0.70;;
10303;SDS011;5197;48.152;8.590;2023-02-21T16:56:02;0.50;;;0.50;;
10303;SDS011;5197;48.152;8.590;2023-02-21T16:58:35;2.37;;;0.80;;
10303;SDS011;5197;48.152;8.590;2023-02-21T17:01:11;0.83;;;0.70;;
10303;SDS011;5197;48.152;8.590;2023-02-21T17:03:55;3.33;;;0.80;;
10303;SDS011;5197;48.152;8.590;2023-02-21T17:06:22;0.53;;;0.53;;
10303;SDS011;5197;48.152;8.590;2023-02-21T17:08:50;7.93;;;1.20;;
10303;SDS011;5197;48.152;8.590;2023-02-21T17:11:17;1.50;;;0.73;;
10303;SDS011;5197;48.152;8.590;2023-02-21T17:13:44;2.20;;;0.83;;
10303;SDS011;5197;48.152;8.590;2023-02-21T17:16:11;2.30;;;0.87;;
10303;SDS011;5197;48.152;8.590;2023-02-21T17:18:39;2.20;;;0.90;;
10303;SDS011;5197;48.152;8.590;2023-02-21T17:21:06;0.80;;;0.80;;
10303;SDS011;5197;48.152;8.590;2023-02-21T17:23:32;4.97;;;0.83;;
10303;SDS011;5197;48.152;8.590;2023-02-21T17:26:03;0.57;;;0.57;;
10303;SDS011;5197;48.152;8.590;2023-02-21T17:28:30;12.07;;;4.93;;
10303;SDS011;5197;48.152;8.590;2023-02-21T17:30:56;12.67;;;5.50;;
10303;SDS011;5197;48.152;8.590;2023-02-21T17:33:30;32.17;;;13.37;;
10303;SDS011;5197;48.152;8.590;2023-02-21T17:35:57;48.10;;;19.63;;
10303;SDS011;5197;48.152;8.590;2023-02-21T17:38:24;72.53;;;31.20;;
10303;SDS011;5197;48.152;8.590;2023-02-21T17:40:50;97.00;;;43.03;;
10303;SDS011;5197;48.152;8.590;2023-02-21T17:43:18;41.23;;;18.50;;
10303;SDS011;5197;48.152;8.590;2023-02-21T17:45:45;9.33;;;5.53;;
10303;SDS011;5197;48.152;8.590;2023-02-21T17:48:12;8.40;;;6.03;;
10303;SDS011;5197;48.152;8.590;2023-02-21T17:50:39;15.00;;;9.90;;
10303;SDS011;5197;48.152;8.590;2023-02-21T17:53:06;16.73;;;11.60;;
10303;SDS011;5197;48.152;8.590;2023-02-21T17:55:34;4.70;;;3.80;;
10303;SDS011;5197;48.152;8.590;2023-02-21T17:58:01;2.07;;;1.30;;
10303;SDS011;5197;48.152;8.590;2023-02-21T18:00:28;2.17;;;1.70;;
10303;SDS011;5197;48.152;8.590;2023-02-21T18:02:58;2.20;;;2.00;;
10303;SDS011;5197;48.152;8.590;2023-02-21T18:05:29;3.47;;;1.70;;
10303;SDS011;5197;48.152;8.590;2023-02-21T18:07:56;3.57;;;3.00;;
10303;SDS011;5197;48.152;8.590;2023-02-21T18:10:24;13.20;;;8.97;;
10303;SDS011;5197;48.152;8.590;2023-02-21T18:12:51;24.33;;;14.20;;
10303;SDS011;5197;48.152;8.590;2023-02-21T18:15:19;11.97;;;8.07;;
10303;SDS011;5197;48.152;8.590;2023-02-21T18:17:47;30.20;;;17.37;;